createdAt,value
2022-10-01T00:02:09.790Z,4.40
2022-10-01T00:04:38.217Z,4.10
2022-10-01T00:07:10.629Z,4.10
2022-10-01T00:09:38.975Z,4.00
2022-10-01T00:12:07.356Z,4.40
2022-10-01T00:14:38.694Z,4.20
2022-10-01T00:17:06.625Z,4.20
2022-10-01T00:19:34.626Z,3.90
2022-10-01T00:22:02.697Z,3.80
2022-10-01T00:24:30.633Z,4.20
2022-10-01T00:26:59.155Z,3.50
2022-10-01T00:29:27.496Z,3.90
2022-10-01T00:31:55.776Z,3.70
2022-10-01T00:34:24.944Z,3.90
2022-10-01T00:36:52.858Z,4.10
2022-10-01T00:39:20.950Z,4.30
2022-10-01T00:41:49.974Z,4.30
2022-10-01T00:44:32.357Z,4.60
2022-10-01T00:47:16.177Z,4.90
2022-10-01T00:49:47.294Z,4.50
2022-10-01T00:52:20.972Z,4.40
2022-10-01T00:54:53.897Z,5.00
2022-10-01T00:57:25.345Z,4.30
2022-10-01T00:59:57.153Z,3.70
2022-10-01T01:02:25.232Z,4.50
2022-10-01T01:04:53.359Z,4.30
2022-10-01T01:07:22.482Z,4.00
2022-10-01T01:09:53.706Z,3.80
2022-10-01T01:12:51.118Z,4.50
2022-10-01T01:15:46.388Z,3.90
2022-10-01T01:18:28.220Z,4.50
2022-10-01T01:21:25.152Z,4.40
2022-10-01T01:23:53.108Z,4.50
2022-10-01T01:26:42.419Z,3.80
2022-10-01T01:29:27.375Z,4.40
2022-10-01T01:32:01.200Z,4.20
2022-10-01T01:34:33.454Z,4.50
2022-10-01T01:37:12.130Z,3.80
2022-10-01T01:39:46.258Z,3.90
2022-10-01T01:42:21.592Z,3.90
2022-10-01T01:47:24.138Z,4.50
2022-10-01T01:49:53.438Z,4.30
2022-10-01T01:52:21.423Z,5.70
2022-10-01T01:54:51.388Z,5.20
2022-10-01T01:57:20.617Z,5.10
2022-10-01T01:59:49.111Z,5.10
2022-10-01T02:02:29.461Z,5.20
2022-10-01T02:05:03.595Z,4.90
2022-10-01T02:07:39.889Z,4.60
2022-10-01T02:10:46.592Z,4.70
2022-10-01T02:13:39.609Z,4.90
2022-10-01T02:16:23.917Z,4.70
2022-10-01T02:19:06.466Z,5.10
2022-10-01T02:22:08.725Z,4.80
2022-10-01T02:24:48.791Z,5.00
2022-10-01T02:27:30.506Z,5.80
2022-10-01T02:30:03.720Z,6.40
2022-10-01T02:32:32.652Z,6.70
2022-10-01T02:35:03.042Z,5.90
2022-10-01T02:37:31.144Z,6.70
2022-10-01T02:40:01.565Z,7.50
2022-10-01T02:42:31.390Z,6.10
2022-10-01T02:45:02.843Z,5.70
2022-10-01T02:47:34.495Z,5.40
2022-10-01T02:50:05.030Z,5.30
2022-10-01T02:52:36.148Z,5.50
2022-10-01T02:55:10.806Z,6.50
2022-10-01T02:57:39.970Z,5.60
2022-10-01T03:00:14.615Z,5.00
2022-10-01T03:02:43.025Z,7.90
2022-10-01T03:05:11.241Z,6.60
2022-10-01T03:07:41.111Z,8.40
2022-10-01T03:10:11.312Z,8.90
2022-10-01T03:12:45.523Z,9.70
2022-10-01T03:15:16.658Z,9.30
2022-10-01T03:17:45.270Z,8.90
2022-10-01T03:20:13.615Z,9.10
2022-10-01T03:22:44.441Z,9.30
2022-10-01T03:25:13.096Z,8.80
2022-10-01T03:27:41.426Z,8.70
2022-10-01T03:30:10.961Z,8.30
2022-10-01T03:32:39.208Z,8.40
2022-10-01T03:35:07.814Z,8.40
2022-10-01T03:37:36.092Z,7.50
2022-10-01T03:40:05.080Z,8.20
2022-10-01T03:42:33.309Z,8.40
2022-10-01T03:45:01.425Z,8.00
2022-10-01T03:47:29.502Z,8.00
2022-10-01T03:49:57.791Z,8.10
2022-10-01T03:52:25.930Z,7.90
2022-10-01T03:54:54.353Z,7.40
2022-10-01T03:57:22.496Z,7.10
2022-10-01T03:59:50.693Z,6.80
2022-10-01T04:02:19.633Z,7.60
2022-10-01T04:04:47.943Z,8.20
2022-10-01T04:07:16.268Z,8.40
2022-10-01T04:09:44.309Z,7.50
2022-10-01T04:12:12.696Z,7.40
2022-10-01T04:14:40.708Z,7.80
2022-10-01T04:17:08.981Z,7.80
2022-10-01T04:19:36.972Z,7.40
2022-10-01T04:22:05.056Z,7.80
2022-10-01T04:24:33.061Z,7.70
2022-10-01T04:27:01.116Z,7.70
2022-10-01T04:29:29.349Z,8.20
2022-10-01T04:31:58.382Z,9.00
2022-10-01T04:34:46.555Z,8.90
2022-10-01T04:37:14.582Z,8.80
2022-10-01T04:39:42.622Z,8.90
2022-10-01T04:42:10.817Z,9.30
2022-10-01T04:44:38.711Z,7.20
2022-10-01T04:47:07.868Z,7.20
2022-10-01T04:49:36.266Z,8.00
2022-10-01T04:52:04.917Z,7.50
2022-10-01T04:54:33.117Z,8.50
2022-10-01T04:57:01.255Z,6.70
2022-10-01T04:59:29.399Z,7.20
2022-10-01T05:01:57.671Z,6.90
2022-10-01T05:04:27.436Z,7.10
2022-10-01T05:06:56.263Z,7.10
2022-10-01T05:09:24.481Z,5.50
2022-10-01T05:11:52.677Z,6.40
2022-10-01T05:14:21.460Z,6.70
2022-10-01T05:16:49.602Z,5.40
2022-10-01T05:19:17.859Z,6.60
2022-10-01T05:21:46.467Z,7.60
2022-10-01T05:24:14.493Z,6.80
2022-10-01T05:26:42.901Z,6.10
2022-10-01T05:29:11.393Z,6.30
2022-10-01T05:31:42.185Z,6.30
2022-10-01T05:34:10.867Z,6.90
2022-10-01T05:36:38.888Z,7.80
2022-10-01T05:39:06.880Z,7.70
2022-10-01T05:41:35.375Z,7.70
2022-10-01T05:44:04.225Z,9.20
2022-10-01T05:46:32.857Z,8.20
2022-10-01T05:49:00.831Z,8.50
2022-10-01T05:51:29.645Z,7.80
2022-10-01T05:53:59.679Z,8.50
2022-10-01T05:56:28.488Z,8.80
2022-10-01T05:58:56.990Z,9.00
2022-10-01T06:01:25.115Z,8.60
2022-10-01T06:03:53.449Z,7.60
2022-10-01T06:06:26.279Z,7.30
2022-10-01T06:08:54.952Z,7.70
2022-10-01T06:11:24.375Z,7.60
2022-10-01T06:13:52.663Z,7.30
2022-10-01T06:16:21.062Z,8.40
2022-10-01T06:18:49.869Z,8.70
2022-10-01T06:21:17.809Z,8.80
2022-10-01T06:23:49.628Z,9.40
2022-10-01T06:26:18.615Z,9.40
2022-10-01T06:28:51.238Z,11.40
2022-10-01T06:31:20.034Z,10.40
2022-10-01T06:33:48.402Z,11.00
2022-10-01T06:36:16.627Z,10.40
2022-10-01T06:38:45.178Z,10.40
2022-10-01T06:41:14.274Z,11.30
2022-10-01T06:43:42.122Z,11.20
2022-10-01T06:46:11.328Z,10.80
2022-10-01T06:48:39.447Z,10.50
2022-10-01T06:51:08.686Z,10.60
2022-10-01T06:53:36.921Z,11.00
2022-10-01T06:56:07.151Z,11.60
2022-10-01T06:58:35.357Z,10.90
2022-10-01T07:01:04.088Z,11.10
2022-10-01T07:03:32.580Z,11.40
2022-10-01T07:06:03.033Z,11.60
2022-10-01T07:08:31.232Z,11.20
2022-10-01T07:11:02.975Z,22.90
2022-10-01T07:13:31.098Z,10.90
2022-10-01T07:15:59.173Z,8.50
2022-10-01T07:18:27.212Z,9.60
2022-10-01T07:20:59.683Z,9.70
2022-10-01T07:23:27.803Z,8.50
2022-10-01T07:25:56.101Z,9.10
2022-10-01T07:28:26.406Z,9.20
2022-10-01T07:31:11.653Z,8.90
2022-10-01T07:33:41.449Z,9.20
2022-10-01T07:36:12.027Z,7.90
2022-10-01T07:38:40.203Z,7.10
2022-10-01T07:41:08.285Z,7.20
2022-10-01T07:43:36.742Z,7.00
2022-10-01T07:46:05.781Z,5.90
2022-10-01T07:48:33.977Z,6.40
2022-10-01T07:51:02.176Z,7.40
2022-10-01T07:53:30.304Z,7.30
2022-10-01T07:56:02.659Z,7.70
2022-10-01T07:58:30.977Z,7.20
2022-10-01T08:01:03.969Z,7.60
2022-10-01T08:03:32.194Z,8.10
2022-10-01T08:06:00.261Z,8.70
2022-10-01T08:08:28.510Z,9.00
2022-10-01T08:10:57.100Z,9.70
2022-10-01T08:13:25.717Z,11.90
2022-10-01T08:15:55.074Z,16.20
2022-10-01T08:18:24.350Z,16.00
2022-10-01T08:20:52.793Z,18.00
2022-10-01T08:23:21.802Z,17.40
2022-10-01T08:25:50.698Z,13.10
2022-10-01T08:28:19.920Z,12.50
2022-10-01T08:30:48.669Z,12.50
2022-10-01T08:33:17.682Z,7.80
2022-10-01T08:35:46.002Z,7.50
2022-10-01T08:38:14.863Z,6.40
2022-10-01T08:40:52.168Z,6.30
2022-10-01T08:43:23.655Z,6.50
2022-10-01T08:46:00.815Z,5.50
2022-10-01T08:49:05.875Z,5.70
2022-10-01T08:51:47.214Z,5.80
2022-10-01T08:54:26.518Z,4.60
2022-10-01T08:56:58.271Z,5.10
2022-10-01T08:59:40.893Z,4.80
2022-10-01T09:02:20.051Z,4.70
2022-10-01T09:04:51.287Z,4.90
2022-10-01T09:07:51.897Z,5.60
2022-10-01T09:10:36.149Z,4.50
2022-10-01T09:13:16.222Z,4.80
2022-10-01T09:16:13.638Z,4.20
2022-10-01T09:19:10.972Z,4.00
2022-10-01T09:21:56.888Z,4.20
2022-10-01T09:24:44.684Z,4.30
2022-10-01T09:27:19.161Z,4.00
2022-10-01T09:30:01.297Z,3.50
2022-10-01T09:32:37.335Z,4.20
2022-10-01T09:35:31.737Z,3.90
2022-10-01T09:38:18.547Z,4.40
2022-10-01T09:40:53.130Z,3.70
2022-10-01T09:43:33.306Z,3.70
2022-10-01T09:46:04.971Z,4.10
2022-10-01T09:48:44.289Z,4.30
2022-10-01T09:51:19.290Z,3.60
2022-10-01T09:54:05.496Z,3.50
2022-10-01T09:56:44.792Z,4.00
2022-10-01T09:59:20.924Z,4.20
2022-10-01T10:01:53.876Z,3.50
2022-10-01T10:04:24.258Z,3.60
2022-10-01T10:07:05.419Z,4.00
2022-10-01T10:09:36.244Z,4.00
2022-10-01T10:12:10.063Z,3.70
2022-10-01T10:14:42.625Z,4.10
2022-10-01T10:17:19.397Z,3.30
2022-10-01T10:19:51.846Z,3.90
2022-10-01T10:22:25.125Z,4.40
2022-10-01T10:24:58.078Z,3.30
2022-10-01T10:27:29.318Z,4.80
2022-10-01T10:30:14.730Z,3.30
2022-10-01T10:32:44.929Z,3.70
2022-10-01T10:35:19.842Z,4.10
2022-10-01T10:37:54.220Z,3.40
2022-10-01T10:40:29.889Z,3.60
2022-10-01T10:42:59.831Z,3.80
2022-10-01T10:45:36.777Z,3.60
2022-10-01T10:48:12.043Z,3.20
2022-10-01T10:50:43.279Z,2.90
2022-10-01T10:53:19.995Z,3.10
2022-10-01T10:56:02.056Z,3.90
2022-10-01T10:58:33.609Z,3.10
2022-10-01T11:01:28.146Z,3.20
2022-10-01T11:04:01.643Z,2.80
2022-10-01T11:06:30.662Z,3.30
2022-10-01T11:09:07.761Z,3.30
2022-10-01T11:11:47.776Z,2.80
2022-10-01T11:14:46.482Z,3.00
2022-10-01T11:17:35.018Z,3.20
2022-10-01T11:20:25.422Z,3.10
2022-10-01T11:23:30.795Z,2.20
2022-10-01T11:26:18.232Z,2.60
2022-10-01T11:29:01.479Z,2.10
2022-10-01T11:31:43.718Z,2.30
2022-10-01T11:34:30.538Z,1.90
2022-10-01T11:37:24.431Z,1.90
2022-10-01T11:39:57.227Z,1.80
2022-10-01T11:42:35.156Z,1.80
2022-10-01T11:45:25.881Z,1.80
2022-10-01T11:48:00.785Z,1.40
2022-10-01T11:50:39.067Z,1.70
2022-10-01T11:53:25.274Z,1.90
2022-10-01T11:56:49.320Z,2.00
2022-10-01T11:59:50.062Z,2.10
2022-10-01T12:02:51.372Z,1.70
2022-10-01T12:05:25.211Z,1.90
2022-10-01T12:08:21.715Z,1.90
2022-10-01T12:11:18.045Z,2.20
2022-10-01T12:13:55.440Z,1.70
2022-10-01T12:16:45.601Z,2.10
2022-10-01T12:19:21.782Z,1.50
2022-10-01T12:22:46.100Z,1.90
2022-10-01T12:25:15.376Z,1.80
2022-10-01T12:27:54.740Z,2.00
2022-10-01T12:30:29.600Z,1.80
2022-10-01T12:33:22.697Z,2.10
2022-10-01T12:36:29.168Z,1.90
2022-10-01T12:39:24.101Z,1.70
2022-10-01T12:42:07.099Z,1.80
2022-10-01T12:44:39.227Z,1.70
2022-10-01T12:47:47.498Z,2.60
2022-10-01T12:50:49.438Z,1.60
2022-10-01T12:53:28.693Z,1.70
2022-10-01T12:56:12.061Z,2.00
2022-10-01T12:58:55.195Z,1.90
2022-10-01T13:01:50.100Z,1.80
2022-10-01T13:04:24.253Z,2.10
2022-10-01T13:07:19.687Z,2.00
2022-10-01T13:10:09.994Z,1.70
2022-10-01T13:13:02.085Z,1.90
2022-10-01T13:15:38.176Z,2.20
2022-10-01T13:18:27.763Z,2.30
2022-10-01T13:21:20.055Z,1.90
2022-10-01T13:23:57.677Z,1.70
2022-10-01T13:26:54.107Z,2.20
2022-10-01T13:29:51.246Z,1.70
2022-10-01T13:32:51.492Z,2.00
2022-10-01T13:35:32.852Z,2.20
2022-10-01T13:38:29.491Z,1.60
2022-10-01T13:41:04.879Z,1.90
2022-10-01T13:43:35.231Z,2.40
2022-10-01T13:46:11.533Z,1.90
2022-10-01T13:48:49.020Z,1.70
2022-10-01T13:51:17.637Z,2.00
2022-10-01T13:54:09.642Z,1.80
2022-10-01T13:56:38.790Z,1.90
2022-10-01T13:59:35.162Z,1.80
2022-10-01T14:02:30.660Z,2.40
2022-10-01T14:05:23.376Z,2.40
2022-10-01T14:07:59.616Z,1.90
2022-10-01T14:10:57.300Z,2.20
2022-10-01T14:13:47.145Z,2.20
2022-10-01T14:16:17.104Z,2.20
2022-10-01T14:18:49.726Z,2.30
2022-10-01T14:21:28.880Z,2.30
2022-10-01T14:24:14.933Z,2.30
2022-10-01T14:27:34.290Z,2.10
2022-10-01T14:30:20.834Z,2.70
2022-10-01T14:33:21.413Z,2.30
2022-10-01T14:36:04.714Z,2.20
2022-10-01T14:38:33.530Z,2.60
2022-10-01T14:41:02.205Z,2.30
2022-10-01T14:43:32.983Z,2.10
2022-10-01T14:46:07.481Z,2.10
2022-10-01T14:48:40.944Z,2.00
2022-10-01T14:51:31.905Z,2.30
2022-10-01T14:54:01.093Z,3.20
2022-10-01T14:56:29.977Z,2.40
2022-10-01T14:59:05.887Z,2.70
2022-10-01T15:01:34.943Z,2.10
2022-10-01T15:04:15.015Z,2.20
2022-10-01T15:06:44.342Z,2.00
2022-10-01T15:09:15.678Z,2.30
2022-10-01T15:11:47.799Z,2.10
2022-10-01T15:14:24.005Z,2.50
2022-10-01T15:16:52.847Z,2.30
2022-10-01T15:19:23.415Z,2.00
2022-10-01T15:21:55.519Z,2.20
2022-10-01T15:24:40.550Z,2.20
2022-10-01T15:27:11.437Z,2.40
2022-10-01T15:29:42.985Z,2.50
2022-10-01T15:32:18.665Z,2.20
2022-10-01T15:34:56.103Z,2.40
2022-10-01T15:37:35.229Z,2.20
2022-10-01T15:40:07.279Z,2.70
2022-10-01T15:42:36.687Z,2.70
2022-10-01T15:45:07.723Z,3.00
2022-10-01T15:47:37.950Z,2.80
2022-10-01T15:50:09.172Z,2.90
2022-10-01T15:53:06.818Z,3.30
2022-10-01T15:55:49.805Z,2.80
2022-10-01T15:58:31.830Z,2.90
2022-10-01T16:01:12.437Z,3.10
2022-10-01T16:03:55.179Z,2.60
2022-10-01T16:06:29.481Z,2.70
2022-10-01T16:09:06.620Z,2.60
2022-10-01T16:11:57.245Z,3.60
2022-10-01T16:14:41.063Z,3.00
2022-10-01T16:17:18.687Z,2.80
2022-10-01T16:19:53.387Z,3.40
2022-10-01T16:22:21.525Z,4.60
2022-10-01T16:24:52.872Z,3.60
2022-10-01T16:27:34.664Z,3.00
2022-10-01T16:30:12.597Z,3.20
2022-10-01T16:32:41.250Z,3.50
2022-10-01T16:35:21.877Z,4.90
2022-10-01T16:37:53.130Z,4.50
2022-10-01T16:40:25.522Z,3.60
2022-10-01T16:42:54.687Z,3.80
2022-10-01T16:45:25.478Z,4.00
2022-10-01T16:47:56.921Z,3.70
2022-10-01T16:50:25.968Z,3.90
2022-10-01T16:52:56.365Z,3.40
2022-10-01T16:55:37.962Z,3.30
2022-10-01T16:58:07.216Z,3.50
2022-10-01T17:00:37.711Z,3.90
2022-10-01T17:03:09.490Z,4.60
2022-10-01T17:05:38.067Z,4.70
2022-10-01T17:08:11.542Z,5.10
2022-10-01T17:10:44.230Z,5.60
2022-10-01T17:13:14.259Z,5.40
2022-10-01T17:15:43.581Z,5.60
2022-10-01T17:18:12.367Z,4.60
2022-10-01T17:20:40.662Z,3.00
2022-10-01T17:23:12.494Z,1.90
2022-10-01T17:25:41.562Z,1.90
2022-10-01T17:28:16.066Z,1.90
2022-10-01T17:30:46.719Z,1.90
2022-10-01T17:33:16.801Z,1.80
2022-10-01T17:35:51.845Z,1.90
2022-10-01T17:40:55.703Z,1.70
2022-10-01T17:43:25.277Z,1.60
2022-10-01T17:46:01.411Z,2.00
2022-10-01T17:48:30.504Z,2.00
2022-10-01T17:51:07.489Z,2.60
2022-10-01T17:53:42.303Z,2.10
2022-10-01T17:56:17.115Z,2.00
2022-10-01T17:58:46.323Z,1.90
2022-10-01T18:01:20.048Z,1.70
2022-10-01T18:03:56.275Z,1.70
2022-10-01T18:06:28.035Z,1.70
2022-10-01T18:08:57.234Z,1.90
2022-10-01T18:11:30.490Z,1.60
2022-10-01T18:14:00.470Z,1.90
2022-10-01T18:16:29.238Z,1.80
2022-10-01T18:21:48.696Z,1.70
2022-10-01T18:24:17.840Z,1.80
2022-10-01T18:26:45.991Z,2.00
2022-10-01T18:29:24.337Z,1.90
2022-10-01T18:32:02.643Z,2.50
2022-10-01T18:34:39.820Z,2.60
2022-10-01T18:37:23.387Z,2.00
2022-10-01T18:40:15.421Z,2.30
2022-10-01T18:42:49.646Z,2.20
2022-10-01T18:45:43.420Z,2.40
2022-10-01T18:48:17.626Z,3.20
2022-10-01T18:50:55.173Z,2.80
2022-10-01T18:53:23.467Z,2.50
2022-10-01T18:56:02.767Z,2.70
2022-10-01T18:58:43.483Z,3.60
2022-10-01T19:01:41.926Z,3.60
2022-10-01T19:04:40.727Z,3.60
2022-10-01T19:07:43.790Z,2.80
2022-10-01T19:10:31.491Z,3.50
2022-10-01T19:13:12.043Z,3.70
2022-10-01T19:15:59.903Z,3.50
2022-10-01T19:18:55.220Z,3.50
2022-10-01T19:21:33.629Z,3.70
2022-10-01T19:24:01.876Z,3.00
2022-10-01T19:26:47.038Z,3.30
2022-10-01T19:29:21.613Z,3.30
2022-10-01T19:32:03.207Z,3.50
2022-10-01T19:34:35.155Z,3.20
2022-10-01T19:37:29.836Z,3.60
2022-10-01T19:40:05.656Z,4.10
2022-10-01T19:42:39.983Z,3.60
2022-10-01T19:45:30.843Z,4.60
2022-10-01T19:48:16.101Z,4.30
2022-10-01T19:50:51.173Z,4.80
2022-10-01T19:53:30.873Z,4.80
2022-10-01T19:56:01.512Z,4.50
2022-10-01T19:58:30.806Z,5.40
2022-10-01T20:01:02.702Z,5.00
2022-10-01T20:03:30.661Z,5.10
2022-10-01T20:06:10.516Z,4.40
2022-10-01T20:08:53.014Z,5.70
2022-10-01T20:11:32.006Z,4.40
2022-10-01T20:14:41.179Z,4.10
2022-10-01T20:17:48.388Z,4.30
2022-10-01T20:20:25.599Z,4.50
2022-10-01T20:23:12.008Z,4.00
2022-10-01T20:25:58.168Z,4.10
2022-10-01T20:29:04.700Z,4.40
2022-10-01T20:32:09.912Z,4.40
2022-10-01T20:34:59.098Z,3.80
2022-10-01T20:37:38.854Z,3.90
2022-10-01T20:40:18.408Z,4.50
2022-10-01T20:42:50.906Z,4.10
2022-10-01T20:45:23.949Z,4.00
2022-10-01T20:48:01.518Z,3.90
2022-10-01T20:50:39.982Z,3.80
2022-10-01T20:53:25.020Z,4.00
2022-10-01T20:56:01.737Z,3.90
2022-10-01T20:58:35.054Z,4.30
2022-10-01T21:01:17.214Z,4.20
2022-10-01T21:04:07.790Z,4.10
2022-10-01T21:06:42.521Z,3.80
2022-10-01T21:09:21.101Z,3.90
2022-10-01T21:11:59.262Z,4.10
2022-10-01T21:14:35.762Z,4.40
2022-10-01T21:17:19.689Z,3.80
2022-10-01T21:20:15.615Z,3.50
2022-10-01T21:23:14.183Z,3.70
2022-10-01T21:25:57.192Z,4.00
2022-10-01T21:28:37.275Z,4.10
2022-10-01T21:31:23.889Z,3.90
2022-10-01T21:34:09.557Z,4.40
2022-10-01T21:36:38.841Z,4.00
2022-10-01T21:39:41.449Z,4.20
2022-10-01T21:42:12.209Z,4.60
2022-10-01T21:45:08.003Z,4.20
2022-10-01T21:47:54.701Z,4.10
2022-10-01T21:50:51.749Z,4.00
2022-10-01T21:53:50.536Z,4.60
2022-10-01T21:56:38.754Z,4.20
2022-10-01T21:59:22.339Z,3.60
2022-10-01T22:02:14.968Z,4.80
2022-10-01T22:05:23.644Z,5.60
2022-10-01T22:07:58.538Z,4.70
2022-10-01T22:10:33.715Z,5.10
2022-10-01T22:15:41.990Z,5.20
2022-10-01T22:18:35.739Z,9.00
2022-10-01T22:21:20.854Z,6.80
2022-10-01T22:23:58.125Z,6.60
2022-10-01T22:26:31.726Z,7.80
2022-10-01T22:29:02.180Z,8.20
2022-10-01T22:31:35.897Z,8.10
2022-10-01T22:34:15.476Z,7.50
2022-10-01T22:37:08.669Z,7.40
2022-10-01T22:39:42.664Z,7.00
2022-10-01T22:42:24.389Z,7.30
2022-10-01T22:44:53.255Z,7.30
2022-10-01T22:47:38.212Z,7.50
2022-10-01T22:50:20.143Z,6.60
2022-10-01T22:53:37.857Z,7.70
2022-10-01T22:56:06.742Z,7.60
2022-10-01T22:59:10.326Z,7.40
2022-10-01T23:01:44.081Z,8.00
2022-10-01T23:04:15.265Z,8.90
2022-10-01T23:06:58.166Z,9.10
2022-10-01T23:09:29.030Z,7.80
2022-10-01T23:12:20.076Z,8.10
2022-10-01T23:15:14.996Z,8.60
2022-10-01T23:17:59.614Z,7.90
2022-10-01T23:20:32.572Z,7.70
2022-10-01T23:23:10.930Z,8.00
2022-10-01T23:25:59.434Z,7.10
2022-10-01T23:28:36.459Z,7.30
2022-10-01T23:31:36.814Z,5.90
2022-10-01T23:34:22.675Z,6.40
2022-10-01T23:37:10.935Z,7.20
2022-10-01T23:40:13.448Z,6.20
2022-10-01T23:42:48.939Z,6.50
2022-10-01T23:48:23.542Z,5.30
2022-10-01T23:51:02.398Z,5.00
2022-10-01T23:54:08.889Z,5.10
2022-10-01T23:56:50.208Z,5.00
2022-10-01T23:59:39.355Z,4.00
